Air Navigation Services of Czech Republic
Airport: LKPD Updated:  18.07.2019 17:00:30  UTC
 METAR LKPD 18.07. 17:00 ...
METAR LKPD 181700Z 11005KT 360V160 CAVOK 26/07 Q1011 NOSIG RMK BLU BLU=
 TAF LKPD 18.07. 11:00 ...
TAF LKPD 181100Z 1812/1912 VRB02KT CAVOK      TEMPO 1812/1816 27008KT=